sensor_id;sensor_type;location;lat;lon;timestamp;temperature;humidity
53053;DHT22;38934;52.690;6.184;2023-06-24T00:00:57;17.20;99.90
53053;DHT22;38934;52.690;6.184;2023-06-24T00:03:22;17.10;99.90
53053;DHT22;38934;52.690;6.184;2023-06-24T00:05:48;17.10;99.90
53053;DHT22;38934;52.690;6.184;2023-06-24T00:08:19;17.10;99.90
53053;DHT22;38934;52.690;6.184;2023-06-24T00:10:46;17.00;99.90
53053;DHT22;38934;52.690;6.184;2023-06-24T00:13:13;17.00;99.90
53053;DHT22;38934;52.690;6.184;2023-06-24T00:15:39;16.90;99.90
53053;DHT22;38934;52.690;6.184;2023-06-24T00:18:11;16.90;99.90
53053;DHT22;38934;52.690;6.184;2023-06-24T00:20:38;16.90;99.90
53053;DHT22;38934;52.690;6.184;2023-06-24T00:23:05;17.10;99.90
53053;DHT22;38934;52.690;6.184;2023-06-24T00:25:31;16.80;99.90
53053;DHT22;38934;52.690;6.184;2023-06-24T00:27:57;16.90;99.90
53053;DHT22;38934;52.690;6.184;2023-06-24T00:30:23;16.80;99.90
53053;DHT22;38934;52.690;6.184;2023-06-24T00:32:48;16.80;99.90
53053;DHT22;38934;52.690;6.184;2023-06-24T00:35:14;16.80;99.90
53053;DHT22;38934;52.690;6.184;2023-06-24T00:37:40;16.80;99.90
53053;DHT22;38934;52.690;6.184;2023-06-24T00:40:08;16.70;99.90
53053;DHT22;38934;52.690;6.184;2023-06-24T00:42:36;16.70;99.90
53053;DHT22;38934;52.690;6.184;2023-06-24T00:45:03;16.70;99.90
53053;DHT22;38934;52.690;6.184;2023-06-24T00:47:31;16.60;99.90
53053;DHT22;38934;52.690;6.184;2023-06-24T00:49:57;16.60;99.90
53053;DHT22;38934;52.690;6.184;2023-06-24T00:52:23;16.70;99.90
53053;DHT22;38934;52.690;6.184;2023-06-24T00:54:49;16.60;99.90
53053;DHT22;38934;52.690;6.184;2023-06-24T00:57:15;16.50;99.90
53053;DHT22;38934;52.690;6.184;2023-06-24T00:59:44;16.50;99.90
53053;DHT22;38934;52.690;6.184;2023-06-24T01:02:11;16.50;99.90
53053;DHT22;38934;52.690;6.184;2023-06-24T01:04:37;16.50;99.90
53053;DHT22;38934;52.690;6.184;2023-06-24T01:07:05;16.50;99.90
53053;DHT22;38934;52.690;6.184;2023-06-24T01:09:31;16.50;99.90
53053;DHT22;38934;52.690;6.184;2023-06-24T01:11:57;16.40;99.90
53053;DHT22;38934;52.690;6.184;2023-06-24T01:14:22;16.40;99.90
53053;DHT22;38934;52.690;6.184;2023-06-24T01:20:59;16.40;99.90
53053;DHT22;38934;52.690;6.184;2023-06-24T01:31:31;16.30;99.90
53053;DHT22;38934;52.690;6.184;2023-06-24T01:34:25;16.20;99.90
53053;DHT22;38934;52.690;6.184;2023-06-24T01:37:10;16.20;99.90
53053;DHT22;38934;52.690;6.184;2023-06-24T01:39:42;16.20;99.90
53053;DHT22;38934;52.690;6.184;2023-06-24T01:42:13;16.20;99.90
53053;DHT22;38934;52.690;6.184;2023-06-24T01:44:42;16.20;99.90
53053;DHT22;38934;52.690;6.184;2023-06-24T01:47:09;16.10;99.90
53053;DHT22;38934;52.690;6.184;2023-06-24T01:49:39;16.10;99.90
53053;DHT22;38934;52.690;6.184;2023-06-24T01:52:08;16.30;99.90
53053;DHT22;38934;52.690;6.184;2023-06-24T01:54:36;16.10;99.90
53053;DHT22;38934;52.690;6.184;2023-06-24T01:57:04;16.00;99.90
53053;DHT22;38934;52.690;6.184;2023-06-24T01:59:31;16.00;99.90
53053;DHT22;38934;52.690;6.184;2023-06-24T02:01:57;16.00;99.90
53053;DHT22;38934;52.690;6.184;2023-06-24T02:04:24;16.00;99.90
53053;DHT22;38934;52.690;6.184;2023-06-24T02:06:51;16.00;99.90
53053;DHT22;38934;52.690;6.184;2023-06-24T02:09:19;15.90;99.90
53053;DHT22;38934;52.690;6.184;2023-06-24T02:11:46;15.90;99.90
53053;DHT22;38934;52.690;6.184;2023-06-24T02:14:12;15.90;99.90
53053;DHT22;38934;52.690;6.184;2023-06-24T02:16:41;15.90;99.90
53053;DHT22;38934;52.690;6.184;2023-06-24T02:19:08;15.80;99.90
53053;DHT22;38934;52.690;6.184;2023-06-24T02:21:35;15.80;99.90
53053;DHT22;38934;52.690;6.184;2023-06-24T02:24:02;15.80;99.90
53053;DHT22;38934;52.690;6.184;2023-06-24T02:26:28;15.80;99.90
53053;DHT22;38934;52.690;6.184;2023-06-24T02:28:54;15.80;99.90
53053;DHT22;38934;52.690;6.184;2023-06-24T02:31:21;15.80;99.90
53053;DHT22;38934;52.690;6.184;2023-06-24T02:33:46;15.70;99.90
53053;DHT22;38934;52.690;6.184;2023-06-24T02:36:12;15.60;99.90
53053;DHT22;38934;52.690;6.184;2023-06-24T02:38:38;15.70;99.90
53053;DHT22;38934;52.690;6.184;2023-06-24T02:41:04;15.70;99.90
53053;DHT22;38934;52.690;6.184;2023-06-24T02:43:30;15.60;99.90
53053;DHT22;38934;52.690;6.184;2023-06-24T02:45:58;15.60;99.90
53053;DHT22;38934;52.690;6.184;2023-06-24T02:48:26;15.70;99.90
53053;DHT22;38934;52.690;6.184;2023-06-24T02:50:53;15.60;99.90
53053;DHT22;38934;52.690;6.184;2023-06-24T02:53:19;15.50;99.90
53053;DHT22;38934;52.690;6.184;2023-06-24T02:55:45;15.50;99.90
53053;DHT22;38934;52.690;6.184;2023-06-24T02:58:12;15.50;99.90
53053;DHT22;38934;52.690;6.184;2023-06-24T03:00:38;15.40;99.90
53053;DHT22;38934;52.690;6.184;2023-06-24T03:03:05;15.40;99.90
53053;DHT22;38934;52.690;6.184;2023-06-24T03:05:32;15.40;99.90
53053;DHT22;38934;52.690;6.184;2023-06-24T03:07:58;15.40;99.90
53053;DHT22;38934;52.690;6.184;2023-06-24T03:10:27;15.40;99.90
53053;DHT22;38934;52.690;6.184;2023-06-24T03:12:53;15.30;99.90
53053;DHT22;38934;52.690;6.184;2023-06-24T03:15:19;15.30;99.90
53053;DHT22;38934;52.690;6.184;2023-06-24T03:17:45;15.30;99.90
53053;DHT22;38934;52.690;6.184;2023-06-24T03:20:11;15.30;99.90
53053;DHT22;38934;52.690;6.184;2023-06-24T03:22:36;15.30;99.90
53053;DHT22;38934;52.690;6.184;2023-06-24T03:25:02;15.40;99.90
53053;DHT22;38934;52.690;6.184;2023-06-24T03:27:28;15.40;99.90
53053;DHT22;38934;52.690;6.184;2023-06-24T03:29:54;15.40;99.90
53053;DHT22;38934;52.690;6.184;2023-06-24T03:32:19;15.40;99.90
53053;DHT22;38934;52.690;6.184;2023-06-24T03:34:45;15.40;99.90
53053;DHT22;38934;52.690;6.184;2023-06-24T03:37:11;15.40;99.90
53053;DHT22;38934;52.690;6.184;2023-06-24T03:39:37;15.40;99.90
53053;DHT22;38934;52.690;6.184;2023-06-24T03:42:03;15.40;99.90
53053;DHT22;38934;52.690;6.184;2023-06-24T03:44:28;15.40;99.90
53053;DHT22;38934;52.690;6.184;2023-06-24T03:46:54;15.50;99.90
53053;DHT22;38934;52.690;6.184;2023-06-24T03:49:19;15.50;99.90
53053;DHT22;38934;52.690;6.184;2023-06-24T03:51:45;15.50;99.90
53053;DHT22;38934;52.690;6.184;2023-06-24T03:54:11;15.50;99.90
53053;DHT22;38934;52.690;6.184;2023-06-24T03:56:37;15.60;99.90
53053;DHT22;38934;52.690;6.184;2023-06-24T03:59:03;15.60;99.90
53053;DHT22;38934;52.690;6.184;2023-06-24T04:01:28;15.70;99.90
53053;DHT22;38934;52.690;6.184;2023-06-24T04:03:57;15.70;99.90
53053;DHT22;38934;52.690;6.184;2023-06-24T04:06:23;15.80;99.90
53053;DHT22;38934;52.690;6.184;2023-06-24T04:08:49;15.90;99.90
53053;DHT22;38934;52.690;6.184;2023-06-24T04:11:17;15.90;99.90
53053;DHT22;38934;52.690;6.184;2023-06-24T04:13:45;15.80;99.90
53053;DHT22;38934;52.690;6.184;2023-06-24T04:16:11;16.10;99.90
53053;DHT22;38934;52.690;6.184;2023-06-24T04:18:36;15.90;99.90
53053;DHT22;38934;52.690;6.184;2023-06-24T04:21:05;16.00;99.90
53053;DHT22;38934;52.690;6.184;2023-06-24T04:23:32;16.00;99.90
53053;DHT22;38934;52.690;6.184;2023-06-24T04:25:58;16.00;99.90
53053;DHT22;38934;52.690;6.184;2023-06-24T04:28:24;16.00;99.90
53053;DHT22;38934;52.690;6.184;2023-06-24T04:30:50;16.10;99.90
53053;DHT22;38934;52.690;6.184;2023-06-24T04:33:15;16.20;99.90
53053;DHT22;38934;52.690;6.184;2023-06-24T04:35:41;16.20;99.90
53053;DHT22;38934;52.690;6.184;2023-06-24T04:38:06;16.30;99.90
53053;DHT22;38934;52.690;6.184;2023-06-24T04:40:32;16.30;99.90
53053;DHT22;38934;52.690;6.184;2023-06-24T04:42:58;16.30;99.90
53053;DHT22;38934;52.690;6.184;2023-06-24T04:45:23;16.40;99.90
53053;DHT22;38934;52.690;6.184;2023-06-24T04:47:49;16.40;99.90
53053;DHT22;38934;52.690;6.184;2023-06-24T04:50:14;16.50;99.90
53053;DHT22;38934;52.690;6.184;2023-06-24T04:52:40;16.50;99.90
53053;DHT22;38934;52.690;6.184;2023-06-24T04:55:06;16.70;99.90
53053;DHT22;38934;52.690;6.184;2023-06-24T04:57:33;16.80;99.90
53053;DHT22;38934;52.690;6.184;2023-06-24T04:59:59;17.00;99.90
53053;DHT22;38934;52.690;6.184;2023-06-24T05:02:25;17.10;99.90
53053;DHT22;38934;52.690;6.184;2023-06-24T05:04:52;17.30;99.90
53053;DHT22;38934;52.690;6.184;2023-06-24T05:07:17;17.40;99.90
53053;DHT22;38934;52.690;6.184;2023-06-24T05:09:46;17.70;99.90
53053;DHT22;38934;52.690;6.184;2023-06-24T05:12:12;18.50;99.90
53053;DHT22;38934;52.690;6.184;2023-06-24T05:14:37;19.70;99.90
53053;DHT22;38934;52.690;6.184;2023-06-24T05:17:03;21.00;99.90
53053;DHT22;38934;52.690;6.184;2023-06-24T05:19:29;22.00;99.90
53053;DHT22;38934;52.690;6.184;2023-06-24T05:21:55;22.40;99.90
53053;DHT22;38934;52.690;6.184;2023-06-24T05:24:21;22.50;99.90
53053;DHT22;38934;52.690;6.184;2023-06-24T05:26:50;22.30;99.90
53053;DHT22;38934;52.690;6.184;2023-06-24T05:29:17;21.90;99.90
53053;DHT22;38934;52.690;6.184;2023-06-24T05:31:43;21.40;99.90
53053;DHT22;38934;52.690;6.184;2023-06-24T05:34:08;21.10;99.90
53053;DHT22;38934;52.690;6.184;2023-06-24T05:36:34;20.80;99.90
53053;DHT22;38934;52.690;6.184;2023-06-24T05:39:00;20.50;99.90
53053;DHT22;38934;52.690;6.184;2023-06-24T05:41:26;20.30;99.90
53053;DHT22;38934;52.690;6.184;2023-06-24T05:44:02;20.30;99.90
53053;DHT22;38934;52.690;6.184;2023-06-24T05:46:28;21.10;99.90
53053;DHT22;38934;52.690;6.184;2023-06-24T05:48:54;22.00;99.90
53053;DHT22;38934;52.690;6.184;2023-06-24T05:51:19;23.20;99.90
53053;DHT22;38934;52.690;6.184;2023-06-24T05:53:45;24.60;99.90
53053;DHT22;38934;52.690;6.184;2023-06-24T05:56:11;25.80;99.90
53053;DHT22;38934;52.690;6.184;2023-06-24T05:58:36;26.90;99.90
53053;DHT22;38934;52.690;6.184;2023-06-24T06:01:02;27.50;99.90
53053;DHT22;38934;52.690;6.184;2023-06-24T06:03:28;28.20;99.90
53053;DHT22;38934;52.690;6.184;2023-06-24T06:05:53;28.90;99.90
53053;DHT22;38934;52.690;6.184;2023-06-24T06:08:19;29.30;99.90
53053;DHT22;38934;52.690;6.184;2023-06-24T06:10:45;29.80;98.50
53053;DHT22;38934;52.690;6.184;2023-06-24T06:13:10;30.20;96.10
53053;DHT22;38934;52.690;6.184;2023-06-24T06:15:36;30.70;93.90
53053;DHT22;38934;52.690;6.184;2023-06-24T06:18:01;31.00;92.30
53053;DHT22;38934;52.690;6.184;2023-06-24T06:20:27;31.40;91.00
53053;DHT22;38934;52.690;6.184;2023-06-24T06:22:53;31.90;89.10
53053;DHT22;38934;52.690;6.184;2023-06-24T06:25:18;32.10;85.80
53053;DHT22;38934;52.690;6.184;2023-06-24T06:27:44;32.50;83.40
53053;DHT22;38934;52.690;6.184;2023-06-24T06:30:10;32.60;80.80
53053;DHT22;38934;52.690;6.184;2023-06-24T06:32:36;32.20;78.10
53053;DHT22;38934;52.690;6.184;2023-06-24T06:35:01;31.30;77.30
53053;DHT22;38934;52.690;6.184;2023-06-24T06:37:27;30.20;77.30
53053;DHT22;38934;52.690;6.184;2023-06-24T06:39:53;30.00;79.20
53053;DHT22;38934;52.690;6.184;2023-06-24T06:42:18;30.60;81.10
53053;DHT22;38934;52.690;6.184;2023-06-24T06:44:44;31.50;80.70
53053;DHT22;38934;52.690;6.184;2023-06-24T06:47:10;32.30;80.00
53053;DHT22;38934;52.690;6.184;2023-06-24T06:49:36;33.00;77.70
53053;DHT22;38934;52.690;6.184;2023-06-24T06:52:01;33.80;76.30
53053;DHT22;38934;52.690;6.184;2023-06-24T06:54:27;34.20;74.20
53053;DHT22;38934;52.690;6.184;2023-06-24T06:56:53;33.80;71.70
53053;DHT22;38934;52.690;6.184;2023-06-24T06:59:18;32.80;70.70
53053;DHT22;38934;52.690;6.184;2023-06-24T07:01:44;31.60;70.40
53053;DHT22;38934;52.690;6.184;2023-06-24T07:04:10;30.40;71.10
53053;DHT22;38934;52.690;6.184;2023-06-24T07:06:35;29.50;72.20
53053;DHT22;38934;52.690;6.184;2023-06-24T07:09:01;29.30;74.30
53053;DHT22;38934;52.690;6.184;2023-06-24T07:11:26;29.90;75.30
53053;DHT22;38934;52.690;6.184;2023-06-24T07:13:52;30.60;74.20
53053;DHT22;38934;52.690;6.184;2023-06-24T07:16:18;31.10;73.80
53053;DHT22;38934;52.690;6.184;2023-06-24T07:18:44;31.50;72.00
53053;DHT22;38934;52.690;6.184;2023-06-24T07:21:09;31.90;71.60
53053;DHT22;38934;52.690;6.184;2023-06-24T07:23:35;31.80;70.20
53053;DHT22;38934;52.690;6.184;2023-06-24T07:26:01;31.40;69.90
53053;DHT22;38934;52.690;6.184;2023-06-24T07:28:26;31.00;70.30
53053;DHT22;38934;52.690;6.184;2023-06-24T07:30:52;31.00;70.90
53053;DHT22;38934;52.690;6.184;2023-06-24T07:33:17;30.40;69.90
53053;DHT22;38934;52.690;6.184;2023-06-24T07:35:43;29.70;70.20
53053;DHT22;38934;52.690;6.184;2023-06-24T07:38:09;29.00;71.20
53053;DHT22;38934;52.690;6.184;2023-06-24T07:40:34;28.50;72.70
53053;DHT22;38934;52.690;6.184;2023-06-24T07:43:00;28.20;73.80
53053;DHT22;38934;52.690;6.184;2023-06-24T07:45:25;28.00;74.80
53053;DHT22;38934;52.690;6.184;2023-06-24T07:47:51;27.70;75.40
53053;DHT22;38934;52.690;6.184;2023-06-24T07:50:17;27.50;75.50
53053;DHT22;38934;52.690;6.184;2023-06-24T07:52:42;27.50;76.60
53053;DHT22;38934;52.690;6.184;2023-06-24T07:55:08;27.70;78.20
53053;DHT22;38934;52.690;6.184;2023-06-24T07:57:34;28.00;77.60
53053;DHT22;38934;52.690;6.184;2023-06-24T07:59:59;28.20;76.90
53053;DHT22;38934;52.690;6.184;2023-06-24T08:02:25;28.30;77.40
53053;DHT22;38934;52.690;6.184;2023-06-24T08:04:52;28.50;77.40
53053;DHT22;38934;52.690;6.184;2023-06-24T08:07:17;28.60;77.00
53053;DHT22;38934;52.690;6.184;2023-06-24T08:09:43;29.00;76.60
53053;DHT22;38934;52.690;6.184;2023-06-24T08:12:09;29.20;75.70
53053;DHT22;38934;52.690;6.184;2023-06-24T08:14:35;29.00;74.30
53053;DHT22;38934;52.690;6.184;2023-06-24T08:17:01;28.90;74.50
53053;DHT22;38934;52.690;6.184;2023-06-24T08:19:26;28.80;74.70
53053;DHT22;38934;52.690;6.184;2023-06-24T08:21:52;28.70;74.30
53053;DHT22;38934;52.690;6.184;2023-06-24T08:24:18;28.70;75.00
53053;DHT22;38934;52.690;6.184;2023-06-24T08:26:43;29.50;74.90
53053;DHT22;38934;52.690;6.184;2023-06-24T08:29:09;30.50;74.10
53053;DHT22;38934;52.690;6.184;2023-06-24T08:31:35;31.30;72.70
53053;DHT22;38934;52.690;6.184;2023-06-24T08:34:00;31.90;71.60
53053;DHT22;38934;52.690;6.184;2023-06-24T08:36:28;32.40;70.20
53053;DHT22;38934;52.690;6.184;2023-06-24T08:38:54;33.00;69.10
53053;DHT22;38934;52.690;6.184;2023-06-24T08:41:20;33.30;67.70
53053;DHT22;38934;52.690;6.184;2023-06-24T08:43:46;33.50;66.00
53053;DHT22;38934;52.690;6.184;2023-06-24T08:46:13;33.40;64.50
53053;DHT22;38934;52.690;6.184;2023-06-24T08:48:42;33.70;64.00
53053;DHT22;38934;52.690;6.184;2023-06-24T08:51:09;33.90;62.90
53053;DHT22;38934;52.690;6.184;2023-06-24T08:53:37;34.00;61.10
53053;DHT22;38934;52.690;6.184;2023-06-24T08:56:04;34.00;60.60
53053;DHT22;38934;52.690;6.184;2023-06-24T08:58:30;34.00;60.60
53053;DHT22;38934;52.690;6.184;2023-06-24T09:00:56;34.20;60.30
53053;DHT22;38934;52.690;6.184;2023-06-24T09:03:22;34.20;59.90
53053;DHT22;38934;52.690;6.184;2023-06-24T09:05:47;34.40;59.90
53053;DHT22;38934;52.690;6.184;2023-06-24T09:08:14;34.50;59.70
53053;DHT22;38934;52.690;6.184;2023-06-24T09:10:41;34.60;59.30
53053;DHT22;38934;52.690;6.184;2023-06-24T09:13:07;34.50;58.80
53053;DHT22;38934;52.690;6.184;2023-06-24T09:15:35;34.70;58.80
53053;DHT22;38934;52.690;6.184;2023-06-24T09:18:01;34.70;58.40
53053;DHT22;38934;52.690;6.184;2023-06-24T09:20:28;34.30;58.20
53053;DHT22;38934;52.690;6.184;2023-06-24T09:23:02;33.70;58.00
53053;DHT22;38934;52.690;6.184;2023-06-24T09:25:29;33.40;57.80
53053;DHT22;38934;52.690;6.184;2023-06-24T09:27:54;33.20;58.70
53053;DHT22;38934;52.690;6.184;2023-06-24T09:30:24;33.30;59.10
53053;DHT22;38934;52.690;6.184;2023-06-24T09:32:51;33.10;59.80
53053;DHT22;38934;52.690;6.184;2023-06-24T09:35:19;33.20;59.80
53053;DHT22;38934;52.690;6.184;2023-06-24T09:38:05;33.30;59.70
53053;DHT22;38934;52.690;6.184;2023-06-24T09:40:35;33.40;58.60
53053;DHT22;38934;52.690;6.184;2023-06-24T09:43:01;33.50;58.20
53053;DHT22;38934;52.690;6.184;2023-06-24T09:45:29;33.40;58.40
53053;DHT22;38934;52.690;6.184;2023-06-24T09:47:55;33.50;58.40
53053;DHT22;38934;52.690;6.184;2023-06-24T09:50:22;33.70;58.10
53053;DHT22;38934;52.690;6.184;2023-06-24T09:52:49;33.70;57.30
53053;DHT22;38934;52.690;6.184;2023-06-24T09:55:16;33.80;57.40
53053;DHT22;38934;52.690;6.184;2023-06-24T09:57:45;33.70;57.50
53053;DHT22;38934;52.690;6.184;2023-06-24T10:00:14;33.60;57.60
53053;DHT22;38934;52.690;6.184;2023-06-24T10:02:43;33.50;57.90
53053;DHT22;38934;52.690;6.184;2023-06-24T10:05:09;33.50;58.00
53053;DHT22;38934;52.690;6.184;2023-06-24T10:07:36;33.40;58.00
53053;DHT22;38934;52.690;6.184;2023-06-24T10:10:04;33.20;58.10
53053;DHT22;38934;52.690;6.184;2023-06-24T10:12:30;33.10;58.20
53053;DHT22;38934;52.690;6.184;2023-06-24T10:14:58;32.90;57.90
53053;DHT22;38934;52.690;6.184;2023-06-24T10:17:24;32.60;58.10
53053;DHT22;38934;52.690;6.184;2023-06-24T10:19:52;32.50;59.00
53053;DHT22;38934;52.690;6.184;2023-06-24T10:22:22;32.50;59.00
53053;DHT22;38934;52.690;6.184;2023-06-24T10:24:48;32.30;59.00
53053;DHT22;38934;52.690;6.184;2023-06-24T10:27:21;32.20;59.90
53053;DHT22;38934;52.690;6.184;2023-06-24T10:29:52;32.10;59.00
53053;DHT22;38934;52.690;6.184;2023-06-24T10:32:19;31.90;59.60
53053;DHT22;38934;52.690;6.184;2023-06-24T10:34:48;31.70;59.40
53053;DHT22;38934;52.690;6.184;2023-06-24T10:37:32;31.50;59.20
53053;DHT22;38934;52.690;6.184;2023-06-24T10:39:59;31.20;59.50
53053;DHT22;38934;52.690;6.184;2023-06-24T10:42:39;31.00;60.30
53053;DHT22;38934;52.690;6.184;2023-06-24T10:47:39;30.80;59.90
53053;DHT22;38934;52.690;6.184;2023-06-24T10:50:05;30.80;59.90
53053;DHT22;38934;52.690;6.184;2023-06-24T10:52:32;30.80;60.00
53053;DHT22;38934;52.690;6.184;2023-06-24T10:54:58;30.70;60.00
53053;DHT22;38934;52.690;6.184;2023-06-24T10:57:25;30.70;60.60
53053;DHT22;38934;52.690;6.184;2023-06-24T10:59:55;30.60;60.00
53053;DHT22;38934;52.690;6.184;2023-06-24T11:02:22;30.40;59.00
53053;DHT22;38934;52.690;6.184;2023-06-24T11:04:50;30.30;60.40
53053;DHT22;38934;52.690;6.184;2023-06-24T11:07:20;30.20;60.90
53053;DHT22;38934;52.690;6.184;2023-06-24T11:09:57;30.20;60.70
53053;DHT22;38934;52.690;6.184;2023-06-24T11:12:31;30.10;61.00
53053;DHT22;38934;52.690;6.184;2023-06-24T11:14:58;30.10;61.20
53053;DHT22;38934;52.690;6.184;2023-06-24T11:17:25;30.00;61.30
53053;DHT22;38934;52.690;6.184;2023-06-24T11:19:53;30.00;61.70
53053;DHT22;38934;52.690;6.184;2023-06-24T11:22:18;30.00;61.90
53053;DHT22;38934;52.690;6.184;2023-06-24T11:24:44;29.90;61.50
53053;DHT22;38934;52.690;6.184;2023-06-24T11:27:09;29.90;61.70
53053;DHT22;38934;52.690;6.184;2023-06-24T11:29:35;29.80;61.40
53053;DHT22;38934;52.690;6.184;2023-06-24T11:32:07;29.80;61.60
53053;DHT22;38934;52.690;6.184;2023-06-24T11:34:33;29.70;61.90
53053;DHT22;38934;52.690;6.184;2023-06-24T11:37:08;29.60;62.10
53053;DHT22;38934;52.690;6.184;2023-06-24T11:39:34;29.50;61.00
53053;DHT22;38934;52.690;6.184;2023-06-24T11:42:00;29.20;61.90
53053;DHT22;38934;52.690;6.184;2023-06-24T11:44:26;29.20;62.30
53053;DHT22;38934;52.690;6.184;2023-06-24T11:46:51;29.10;62.10
53053;DHT22;38934;52.690;6.184;2023-06-24T11:49:18;29.20;63.10
53053;DHT22;38934;52.690;6.184;2023-06-24T11:51:48;29.20;63.10
53053;DHT22;38934;52.690;6.184;2023-06-24T11:54:18;29.00;62.50
53053;DHT22;38934;52.690;6.184;2023-06-24T11:56:50;28.70;63.10
53053;DHT22;38934;52.690;6.184;2023-06-24T11:59:23;28.60;63.50
53053;DHT22;38934;52.690;6.184;2023-06-24T12:01:58;28.80;63.80
53053;DHT22;38934;52.690;6.184;2023-06-24T12:04:31;29.00;63.00
53053;DHT22;38934;52.690;6.184;2023-06-24T12:06:57;28.80;61.40
53053;DHT22;38934;52.690;6.184;2023-06-24T12:09:23;28.50;61.50
53053;DHT22;38934;52.690;6.184;2023-06-24T12:11:49;28.30;63.20
53053;DHT22;38934;52.690;6.184;2023-06-24T12:14:15;28.20;64.00
53053;DHT22;38934;52.690;6.184;2023-06-24T12:16:42;28.10;64.50
53053;DHT22;38934;52.690;6.184;2023-06-24T12:19:08;28.00;65.00
53053;DHT22;38934;52.690;6.184;2023-06-24T12:21:35;28.00;65.10
53053;DHT22;38934;52.690;6.184;2023-06-24T12:24:01;27.90;65.50
53053;DHT22;38934;52.690;6.184;2023-06-24T12:26:27;27.90;65.90
53053;DHT22;38934;52.690;6.184;2023-06-24T12:28:56;27.80;65.70
53053;DHT22;38934;52.690;6.184;2023-06-24T12:31:22;27.70;65.70
53053;DHT22;38934;52.690;6.184;2023-06-24T12:33:48;27.70;66.20
53053;DHT22;38934;52.690;6.184;2023-06-24T12:36:14;27.80;66.40
53053;DHT22;38934;52.690;6.184;2023-06-24T12:38:39;28.10;66.60
53053;DHT22;38934;52.690;6.184;2023-06-24T12:41:05;28.30;66.30
53053;DHT22;38934;52.690;6.184;2023-06-24T12:43:32;28.60;65.10
53053;DHT22;38934;52.690;6.184;2023-06-24T12:45:58;28.80;64.40
53053;DHT22;38934;52.690;6.184;2023-06-24T12:48:23;28.90;63.60
53053;DHT22;38934;52.690;6.184;2023-06-24T12:50:49;29.00;63.80
53053;DHT22;38934;52.690;6.184;2023-06-24T12:53:19;29.00;63.20
53053;DHT22;38934;52.690;6.184;2023-06-24T12:55:44;28.90;61.80
53053;DHT22;38934;52.690;6.184;2023-06-24T12:58:10;28.90;61.60
53053;DHT22;38934;52.690;6.184;2023-06-24T13:00:35;28.80;61.40
53053;DHT22;38934;52.690;6.184;2023-06-24T13:03:01;28.80;61.60
53053;DHT22;38934;52.690;6.184;2023-06-24T13:05:27;28.80;62.10
53053;DHT22;38934;52.690;6.184;2023-06-24T13:07:52;28.90;61.30
53053;DHT22;38934;52.690;6.184;2023-06-24T13:10:18;28.90;61.50
53053;DHT22;38934;52.690;6.184;2023-06-24T13:12:43;29.00;61.90
53053;DHT22;38934;52.690;6.184;2023-06-24T13:15:09;28.90;60.70
53053;DHT22;38934;52.690;6.184;2023-06-24T13:17:35;28.80;61.10
53053;DHT22;38934;52.690;6.184;2023-06-24T13:20:02;28.80;62.70
53053;DHT22;38934;52.690;6.184;2023-06-24T13:22:29;28.90;62.70
53053;DHT22;38934;52.690;6.184;2023-06-24T13:24:55;28.90;62.20
53053;DHT22;38934;52.690;6.184;2023-06-24T13:27:20;29.00;62.10
53053;DHT22;38934;52.690;6.184;2023-06-24T13:29:47;29.10;62.40
53053;DHT22;38934;52.690;6.184;2023-06-24T13:32:13;29.20;62.50
53053;DHT22;38934;52.690;6.184;2023-06-24T13:34:38;29.30;62.30
53053;DHT22;38934;52.690;6.184;2023-06-24T13:37:04;29.20;61.20
53053;DHT22;38934;52.690;6.184;2023-06-24T13:39:30;29.20;61.70
53053;DHT22;38934;52.690;6.184;2023-06-24T13:41:56;29.10;61.90
53053;DHT22;38934;52.690;6.184;2023-06-24T13:44:22;29.20;61.20
53053;DHT22;38934;52.690;6.184;2023-06-24T13:46:49;29.00;60.70
53053;DHT22;38934;52.690;6.184;2023-06-24T13:49:16;29.10;61.40
53053;DHT22;38934;52.690;6.184;2023-06-24T13:51:42;29.10;61.80
53053;DHT22;38934;52.690;6.184;2023-06-24T13:54:08;29.20;61.90
53053;DHT22;38934;52.690;6.184;2023-06-24T13:56:34;29.20;61.80
53053;DHT22;38934;52.690;6.184;2023-06-24T13:58:59;29.20;61.50
53053;DHT22;38934;52.690;6.184;2023-06-24T14:01:25;29.20;61.70
53053;DHT22;38934;52.690;6.184;2023-06-24T14:03:55;29.30;61.60
53053;DHT22;38934;52.690;6.184;2023-06-24T14:06:21;29.50;62.20
53053;DHT22;38934;52.690;6.184;2023-06-24T14:08:47;29.50;61.90
53053;DHT22;38934;52.690;6.184;2023-06-24T14:11:13;29.50;61.40
53053;DHT22;38934;52.690;6.184;2023-06-24T14:13:39;29.40;61.50
53053;DHT22;38934;52.690;6.184;2023-06-24T14:16:05;29.40;62.10
53053;DHT22;38934;52.690;6.184;2023-06-24T14:18:31;29.50;61.70
53053;DHT22;38934;52.690;6.184;2023-06-24T14:21:00;29.40;61.30
53053;DHT22;38934;52.690;6.184;2023-06-24T14:23:27;29.40;61.20
53053;DHT22;38934;52.690;6.184;2023-06-24T14:25:53;29.30;60.90
53053;DHT22;38934;52.690;6.184;2023-06-24T14:28:19;29.40;60.40
53053;DHT22;38934;52.690;6.184;2023-06-24T14:30:44;29.40;60.20
53053;DHT22;38934;52.690;6.184;2023-06-24T14:33:12;29.30;60.00
53053;DHT22;38934;52.690;6.184;2023-06-24T14:35:37;29.10;60.10
53053;DHT22;38934;52.690;6.184;2023-06-24T14:38:03;29.10;60.90
53053;DHT22;38934;52.690;6.184;2023-06-24T14:40:29;29.30;62.20
53053;DHT22;38934;52.690;6.184;2023-06-24T14:42:54;29.50;62.10
53053;DHT22;38934;52.690;6.184;2023-06-24T14:45:20;29.80;62.10
53053;DHT22;38934;52.690;6.184;2023-06-24T14:47:46;29.90;62.00
53053;DHT22;38934;52.690;6.184;2023-06-24T14:50:11;30.10;62.20
53053;DHT22;38934;52.690;6.184;2023-06-24T14:52:37;30.40;62.20
53053;DHT22;38934;52.690;6.184;2023-06-24T14:55:03;30.70;61.40
53053;DHT22;38934;52.690;6.184;2023-06-24T14:57:28;30.80;61.20
53053;DHT22;38934;52.690;6.184;2023-06-24T14:59:54;31.00;61.10
53053;DHT22;38934;52.690;6.184;2023-06-24T15:02:20;31.10;61.00
53053;DHT22;38934;52.690;6.184;2023-06-24T15:04:45;31.10;61.20
53053;DHT22;38934;52.690;6.184;2023-06-24T15:07:11;31.00;61.30
53053;DHT22;38934;52.690;6.184;2023-06-24T15:09:37;31.00;60.50
53053;DHT22;38934;52.690;6.184;2023-06-24T15:12:02;30.60;59.10
53053;DHT22;38934;52.690;6.184;2023-06-24T15:14:28;30.30;60.10
53053;DHT22;38934;52.690;6.184;2023-06-24T15:16:54;30.30;60.50
53053;DHT22;38934;52.690;6.184;2023-06-24T15:19:23;30.30;61.20
53053;DHT22;38934;52.690;6.184;2023-06-24T15:21:48;30.50;61.40
53053;DHT22;38934;52.690;6.184;2023-06-24T15:24:14;30.60;61.00
53053;DHT22;38934;52.690;6.184;2023-06-24T15:26:40;30.50;63.40
53053;DHT22;38934;52.690;6.184;2023-06-24T15:29:05;30.10;64.10
53053;DHT22;38934;52.690;6.184;2023-06-24T15:31:31;29.80;64.80
53053;DHT22;38934;52.690;6.184;2023-06-24T15:33:56;29.50;65.20
53053;DHT22;38934;52.690;6.184;2023-06-24T15:36:23;29.10;66.00
53053;DHT22;38934;52.690;6.184;2023-06-24T15:38:52;28.90;66.80
53053;DHT22;38934;52.690;6.184;2023-06-24T15:41:18;28.80;67.80